Weather at Boryspil International Airport

Public forecast

Using degrees Celsius for public forecast. Weather courtesy of forecast.io.

Closest aviation weather report (METAR) to Boryspil International Airport

Closest report is Gomel Airport, 131.1 nm (242.8 km) N.

2024/05/22 04:00 (retrieved 16 minutes ago)

UMGG 220400Z 07005MPS 9999 SCT040CB BKN100 14/11 Q1019 NOSIG

Closest aviation forecast (TAF) to Boryspil International Airport

Forecast is more than 12 hours old.

Closest forecast is Sliač Airport, 469.4 nm (869.4 km) W.

2024/05/21 06:30 (retrieved 22 hours ago)

TAF TAF LZSL 210430Z 2106/2118 VRB03KT 9999 BKN040 BECMG 2110/2112 14012KT